Terminal Aerodrome Forecast
Issued by NWS Pueblo, CO

Home | Current Version | Previous Version | Text Only | Print | Product List | Glossary On
Versions: 1 2 3 4 5 6 7 8 9 10 11 12 13 14 15 16 17 18 19 20 21 22 23 24 25 26 27 28 29 30 31
000
FTUS45 KPUB 302328
TAFCOS
TAF
KCOS 302328Z 0100/0124 18010KT P6SM FEW070 SCT080 SCT200
     FM010200 36010KT P6SM VCTS SCT080CB BKN150
     FM010500 01012KT P6SM BKN080 BKN140
     FM011000 01008KT P6SM SCT080 BKN140
     FM011800 06010KT P6SM SCT120 SCT200
     FM012100 16011KT P6SM VCTS SCT080CB BKN200=

USA.gov is the U.S. government's official web portal to all federal, state and local government web resources and services.